Time;durP1;ratioP1;P1;durP2;ratioP2;P2;SDS_P1;SDS_P2;PMS_P1;PMS_P2;Temp;Humidity;BMP_temperature;BMP_pressure;BME280_temperature;BME280_humidity;BME280_pressure;Samples;Min_cycle;Max_cycle;Signal;HPM_P1;HPM_P2
2021/01/04 06:37:01;;;;;;;1999.90;999.90;;;-0.70;99.90;;;;;;5066933;28;20564;-50
2021/01/04 06:39:33;;;;;;;1999.90;999.90;;;-0.70;99.90;;;;;;5046631;28;20429;-49
2021/01/04 06:42:11;;;;;;;1999.90;999.90;;;-0.60;99.90;;;;;;5045529;28;20925;-49
2021/01/04 06:44:37;;;;;;;1999.90;999.90;;;-0.60;99.90;;;;;;5045363;28;20524;-49
2021/01/04 06:47:17;;;;;;;1999.90;999.90;;;-0.60;99.90;;;;;;5038334;28;20458;-49
2021/01/04 06:50:08;;;;;;;1999.90;999.90;;;-0.50;99.90;;;;;;5040917;28;20412;-49
2021/01/04 06:52:45;;;;;;;1999.90;999.90;;;-0.40;99.90;;;;;;5040132;28;20922;-49
2021/01/04 06:55:33;;;;;;;1999.90;999.90;;;-0.50;99.90;;;;;;5039578;28;20472;-49
2021/01/04 06:58:21;;;;;;;1999.90;999.90;;;-0.40;99.90;;;;;;5051275;28;20422;-49
2021/01/04 07:01:24;;;;;;;1999.90;999.90;;;-0.40;99.90;;;;;;5044775;28;20860;-49
2021/01/04 07:04:11;;;;;;;1999.90;999.90;;;-0.40;99.90;;;;;;5043581;28;20503;-50
2021/01/04 07:06:59;;;;;;;1999.90;999.90;;;-0.20;99.90;;;;;;5038979;28;20512;-49
2021/01/04 07:10:02;;;;;;;1999.90;999.90;;;-0.20;99.90;;;;;;5041527;28;20441;-49
2021/01/04 07:12:49;;;;;;;1999.90;999.90;;;-0.30;99.90;;;;;;5041001;28;20452;-50
2021/01/04 07:15:23;;;;;;;1999.90;999.90;;;-0.20;99.90;;;;;;5041962;28;20480;-49
2021/01/04 07:18:13;;;;;;;1999.90;999.90;;;-0.20;99.90;;;;;;5041723;28;20475;-49
2021/01/04 07:20:56;;;;;;;1999.90;999.90;;;-0.20;99.90;;;;;;5036122;28;20929;-50
2021/01/04 07:23:43;;;;;;;1999.90;999.90;;;-0.10;99.90;;;;;;5039501;28;20441;-50
2021/01/04 07:26:40;;;;;;;1999.90;999.90;;;-0.20;99.90;;;;;;5047481;28;20435;-50
2021/01/04 07:29:55;;;;;;;1999.90;999.90;;;-0.30;99.90;;;;;;5039599;28;20448;-49
2021/01/04 07:32:30;;;;;;;1999.90;999.90;;;-0.30;99.90;;;;;;5055817;28;20413;-49
2021/01/04 07:35:13;;;;;;;1999.90;999.90;;;-0.10;99.90;;;;;;5039304;28;20475;-50
2021/01/04 07:37:57;;;;;;;1999.90;999.90;;;-0.10;99.90;;;;;;5051130;28;20823;-50
2021/01/04 07:40:55;;;;;;;1999.90;999.90;;;-0.10;99.90;;;;;;5036310;28;20442;-49
2021/01/04 07:43:32;;;;;;;1999.90;999.90;;;-0.10;99.90;;;;;;5037668;28;20532;-49
2021/01/04 07:46:46;;;;;;;1999.90;999.90;;;0.00;99.90;;;;;;5036967;28;20490;-49
2021/01/04 07:49:12;;;;;;;1999.90;999.90;;;0.00;99.90;;;;;;5025863;28;20445;-50
2021/01/04 07:52:02;;;;;;;1999.90;999.90;;;-0.10;99.90;;;;;;5023147;28;20445;-49
2021/01/04 07:55:10;;;;;;;1999.90;999.90;;;-0.10;99.90;;;;;;5030245;28;20218;-50
2021/01/04 07:57:52;;;;;;;1999.90;999.90;;;-0.10;99.90;;;;;;5034220;28;20515;-49
2021/01/04 08:00:45;;;;;;;1999.90;999.90;;;-0.10;99.90;;;;;;5034602;28;20410;-50
2021/01/04 08:03:16;;;;;;;1999.90;999.90;;;-0.10;99.90;;;;;;5032869;28;20938;-49
2021/01/04 08:06:11;;;;;;;1999.90;999.90;;;0.00;99.90;;;;;;5030494;28;20938;-50
2021/01/04 08:09:01;;;;;;;1999.90;999.90;;;0.00;99.90;;;;;;5034406;28;20418;-50
2021/01/04 08:11:53;;;;;;;1999.90;999.90;;;0.00;99.90;;;;;;5034071;28;20770;-49
2021/01/04 08:14:49;;;;;;;1999.90;999.90;;;0.00;99.90;;;;;;5033299;28;20504;-50
2021/01/04 08:17:27;;;;;;;1999.90;999.90;;;0.00;99.90;;;;;;5034323;28;20426;-50
2021/01/04 08:19:55;;;;;;;1999.90;999.90;;;-0.20;99.90;;;;;;5034342;28;20405;-50
2021/01/04 08:22:27;;;;;;;1999.90;999.90;;;-0.10;99.90;;;;;;5034188;28;20417;-50
2021/01/04 08:25:05;;;;;;;1999.90;999.90;;;-0.10;99.90;;;;;;5033550;28;20429;-49
2021/01/04 08:27:53;;;;;;;1999.90;999.90;;;-0.10;99.90;;;;;;5034020;28;20463;-50
2021/01/04 08:30:28;;;;;;;1999.90;999.90;;;0.00;99.90;;;;;;5032108;28;20425;-50
2021/01/04 08:33:11;;;;;;;1999.90;999.90;;;0.00;99.90;;;;;;5034505;28;20401;-51
2021/01/04 08:35:41;;;;;;;1999.90;999.90;;;0.10;99.90;;;;;;5039571;28;20465;-48
2021/01/04 08:38:21;;;;;;;1999.90;999.90;;;0.00;99.90;;;;;;5039087;28;20427;-48
2021/01/04 08:41:14;;;;;;;1999.90;999.90;;;0.00;99.90;;;;;;5016166;28;20505;-48
2021/01/04 08:43:43;;;;;;;1999.90;999.90;;;0.10;99.90;;;;;;5013961;28;20411;-50
2021/01/04 08:46:24;;;;;;;1999.90;999.90;;;0.10;99.90;;;;;;5013502;28;20458;-48
2021/01/04 08:48:54;;;;;;;1999.90;999.90;;;0.10;99.90;;;;;;5013953;28;20541;-50
2021/01/04 08:51:36;;;;;;;1999.90;999.90;;;0.10;99.90;;;;;;5014246;28;20402;-48
2021/01/04 08:54:28;;;;;;;1999.90;999.90;;;0.10;99.90;;;;;;5013663;28;20438;-48
2021/01/04 08:57:07;;;;;;;1999.90;999.90;;;0.10;99.90;;;;;;5012463;28;20470;-48
2021/01/04 08:59:34;;;;;;;1999.90;999.90;;;0.10;99.90;;;;;;5012735;28;20965;-48
2021/01/04 09:02:14;;;;;;;1999.90;999.90;;;0.00;99.90;;;;;;5033017;28;20426;-47
2021/01/04 09:04:40;;;;;;;1999.90;999.90;;;0.10;99.90;;;;;;5033017;28;20453;-49
2021/01/04 09:07:11;;;;;;;1999.90;999.90;;;0.10;99.90;;;;;;5033491;28;20433;-47
2021/01/04 09:09:43;;;;;;;1999.90;999.90;;;0.10;99.90;;;;;;5020892;28;20456;-47
2021/01/04 09:12:20;;;;;;;1999.90;999.90;;;0.10;99.90;;;;;;5033300;28;20528;-47
2021/01/04 09:15:02;;;;;;;1999.90;999.90;;;0.10;99.90;;;;;;5032572;28;20442;-50
2021/01/04 09:17:39;;;;;;;1999.90;999.90;;;0.10;99.90;;;;;;5031826;28;20422;-48
2021/01/04 09:20:20;;;;;;;1999.90;999.90;;;0.10;99.90;;;;;;5021783;28;20836;-47
2021/01/04 09:22:48;;;;;;;1999.90;999.90;;;0.20;99.90;;;;;;5025609;28;20810;-50
2021/01/04 14:23:22;;;;;;;1999.90;999.90;;;-0.10;99.90;;;;;;5058832;28;20636;-50
2021/01/04 14:25:48;;;;;;;1999.90;999.90;;;-0.20;99.90;;;;;;5057586;28;20493;-51
2021/01/04 14:28:13;;;;;;;1999.90;999.90;;;-0.10;99.90;;;;;;5055727;28;20200;-46
2021/01/04 14:30:39;;;;;;;1999.90;999.90;;;-0.10;99.90;;;;;;5062708;28;20185;-47
2021/01/04 14:33:05;;;;;;;1999.90;999.90;;;-0.10;99.90;;;;;;5044932;28;20201;-47
2021/01/04 14:35:31;;;;;;;1999.90;999.90;;;-0.10;99.90;;;;;;5044085;28;20460;-48
2021/01/04 14:37:56;;;;;;;1999.90;999.90;;;0.00;99.90;;;;;;5045425;28;20197;-46
2021/01/04 14:40:22;;;;;;;1999.90;999.90;;;0.00;99.90;;;;;;5042079;28;20198;-47
2021/01/04 14:42:47;;;;;;;1999.90;999.90;;;0.00;99.90;;;;;;5045842;28;20225;-46
2021/01/04 14:45:14;;;;;;;1999.90;999.90;;;0.10;99.90;;;;;;5046384;28;20294;-46
2021/01/04 14:47:39;;;;;;;1999.90;999.90;;;0.00;99.90;;;;;;5049375;28;20329;-45
2021/01/04 14:50:07;;;;;;;1999.90;999.90;;;0.00;99.90;;;;;;5065692;28;20456;-52
2021/01/04 14:52:32;;;;;;;1999.90;999.90;;;0.00;99.90;;;;;;5071834;28;20250;-46
2021/01/04 14:54:58;;;;;;;1999.90;999.90;;;0.00;99.90;;;;;;5074220;28;20472;-46
2021/01/04 14:57:24;;;;;;;1999.90;999.90;;;0.10;99.90;;;;;;5058474;28;20186;-48
2021/01/04 14:59:49;;;;;;;1999.90;999.90;;;0.10;99.90;;;;;;5046284;28;20196;-48
2021/01/04 15:02:17;;;;;;;1999.90;999.90;;;0.10;99.90;;;;;;5059082;28;20301;-46
2021/01/04 15:04:44;;;;;;;1999.90;999.90;;;0.00;99.90;;;;;;5046049;28;20284;-47
2021/01/04 15:07:10;;;;;;;1999.90;999.90;;;0.00;99.90;;;;;;5052526;28;20441;-47
2021/01/04 15:09:37;;;;;;;1999.90;999.90;;;0.00;99.90;;;;;;5056349;28;20498;-50
2021/01/04 15:12:03;;;;;;;1999.90;999.90;;;-0.10;99.90;;;;;;5053766;28;20186;-46
2021/01/04 15:14:29;;;;;;;1999.90;999.90;;;-0.10;99.90;;;;;;5055231;28;20467;-48
2021/01/04 15:16:55;;;;;;;1999.90;999.90;;;0.00;99.90;;;;;;5050730;28;20455;-48
2021/01/04 15:19:22;;;;;;;1999.90;999.90;;;0.00;99.90;;;;;;5052869;28;20440;-47
2021/01/04 15:21:49;;;;;;;1999.90;999.90;;;0.00;99.90;;;;;;5050616;28;21210;-46
2021/01/04 15:24:15;;;;;;;1999.90;999.90;;;0.00;99.90;;;;;;5046926;28;20572;-48
2021/01/04 15:26:42;;;;;;;1999.90;999.90;;;-0.10;99.90;;;;;;5048825;28;20494;-47
2021/01/04 15:29:08;;;;;;;1999.90;999.90;;;-0.10;99.90;;;;;;5048219;28;20436;-47
2021/01/04 15:31:34;;;;;;;1999.90;999.90;;;-0.10;99.90;;;;;;5047172;28;20448;-46
2021/01/04 15:33:59;;;;;;;1999.90;999.90;;;0.00;99.90;;;;;;5040906;28;20471;-47
2021/01/04 15:36:25;;;;;;;1999.90;999.90;;;-0.10;99.90;;;;;;5030348;28;20445;-47
2021/01/04 15:38:51;;;;;;;1999.90;999.90;;;0.00;99.90;;;;;;5031830;28;20206;-49
2021/01/04 15:41:17;;;;;;;1999.90;999.90;;;0.00;99.90;;;;;;5040478;28;20207;-48
2021/01/04 15:43:44;;;;;;;1999.90;999.90;;;-0.10;99.90;;;;;;5044864;28;20190;-48
2021/01/04 15:46:11;;;;;;;1999.90;999.90;;;-0.10;99.90;;;;;;5036499;28;20445;-48
2021/01/04 15:48:38;;;;;;;1999.90;999.90;;;0.00;99.90;;;;;;5034976;28;20953;-46
2021/01/04 15:51:04;;;;;;;1999.90;999.90;;;0.00;99.90;;;;;;5042894;28;20441;-50
2021/01/04 15:53:30;;;;;;;1999.90;999.90;;;0.00;99.90;;;;;;5049968;28;20436;-48
2021/01/04 15:55:56;;;;;;;1999.90;999.90;;;0.00;99.90;;;;;;5040150;28;20449;-48
2021/01/04 15:58:23;;;;;;;1999.90;999.90;;;-0.10;99.90;;;;;;5034132;28;20187;-46
2021/01/04 16:00:48;;;;;;;1999.90;999.90;;;-0.10;99.90;;;;;;5034825;28;20190;-48
2021/01/04 16:03:14;;;;;;;1999.90;999.90;;;-0.10;99.90;;;;;;5032221;28;20512;-48
2021/01/04 16:05:41;;;;;;;1999.90;999.90;;;-0.10;99.90;;;;;;5037564;28;20220;-48
2021/01/04 16:08:07;;;;;;;1999.90;999.90;;;-0.10;99.90;;;;;;5036687;28;20449;-50
2021/01/04 16:10:33;;;;;;;1999.90;999.90;;;-0.10;99.90;;;;;;5028937;28;20438;-50
2021/01/04 16:13:02;;;;;;;1999.90;999.90;;;-0.10;99.90;;;;;;5034395;28;20452;-48
2021/01/04 16:15:28;;;;;;;1999.90;999.90;;;-0.10;99.90;;;;;;5031480;28;20884;-48
2021/01/04 16:17:54;;;;;;;1999.90;999.90;;;-0.10;99.90;;;;;;5032857;28;20449;-49
2021/01/04 16:20:19;;;;;;;1999.90;999.90;;;0.00;99.90;;;;;;5039880;28;20214;-48
2021/01/04 16:22:45;;;;;;;1999.90;999.90;;;-0.10;99.90;;;;;;5033750;28;20321;-48
2021/01/04 16:25:14;;;;;;;1999.90;999.90;;;-0.10;99.90;;;;;;5032155;28;20265;-48
2021/01/04 16:27:40;;;;;;;1999.90;999.90;;;-0.10;99.90;;;;;;5034571;28;20197;-49
2021/01/04 16:30:08;;;;;;;1999.90;999.90;;;-0.10;99.90;;;;;;5033630;28;20449;-50
2021/01/04 16:32:35;;;;;;;1999.90;999.90;;;-0.10;99.90;;;;;;5033037;28;20217;-47
2021/01/04 16:35:01;;;;;;;1999.90;999.90;;;-0.10;99.90;;;;;;5035385;28;20507;-48
2021/01/04 16:37:26;;;;;;;1999.90;999.90;;;-0.10;99.90;;;;;;5031857;28;20446;-48
2021/01/04 16:39:52;;;;;;;1999.90;999.90;;;-0.10;99.90;;;;;;5040030;28;20531;-48
2021/01/04 16:42:24;;;;;;;1999.90;999.90;;;-0.10;99.90;;;;;;5036466;28;20224;-48
2021/01/04 16:44:51;;;;;;;1999.90;999.90;;;0.00;99.90;;;;;;5034953;28;20884;-49
2021/01/04 16:47:18;;;;;;;1999.90;999.90;;;-0.10;99.90;;;;;;5034753;28;20445;-48
2021/01/04 16:49:45;;;;;;;1999.90;999.90;;;-0.20;99.90;;;;;;5034593;28;20441;-48
2021/01/04 16:52:13;;;;;;;1999.90;999.90;;;-0.10;99.90;;;;;;5038770;28;20564;-49
2021/01/04 16:54:41;;;;;;;1999.90;999.90;;;-0.10;99.90;;;;;;5037382;28;20547;-47
2021/01/04 16:57:08;;;;;;;1999.90;999.90;;;0.00;99.90;;;;;;5031497;28;20445;-50
2021/01/04 16:59:34;;;;;;;1999.90;999.90;;;-0.10;99.90;;;;;;5036163;28;21119;-51
2021/01/04 17:02:00;;;;;;;1999.90;999.90;;;-0.10;99.90;;;;;;5030967;28;20469;-48
2021/01/04 17:04:25;;;;;;;1999.90;999.90;;;-0.10;99.90;;;;;;5030294;28;20328;-48
2021/01/04 17:06:52;;;;;;;1999.90;999.90;;;-0.10;99.90;;;;;;5031197;28;20969;-48
2021/01/04 17:09:20;;;;;;;1999.90;999.90;;;-0.10;99.90;;;;;;5031264;28;20191;-48
2021/01/04 17:11:45;;;;;;;1999.90;999.90;;;-0.10;99.90;;;;;;5021525;28;20892;-50
2021/01/04 17:14:14;;;;;;;1999.90;999.90;;;0.00;99.90;;;;;;5034862;28;21077;-48
2021/01/04 17:16:41;;;;;;;1999.90;999.90;;;0.00;99.90;;;;;;5033040;28;20202;-48
2021/01/04 17:19:08;;;;;;;1999.90;999.90;;;0.00;99.90;;;;;;5030145;28;20503;-50
2021/01/04 17:21:36;;;;;;;1999.90;999.90;;;-0.10;99.90;;;;;;5033303;28;20484;-50
2021/01/04 17:24:05;;;;;;;1999.90;999.90;;;-0.10;99.90;;;;;;5032556;28;20858;-48
2021/01/04 17:26:32;;;;;;;1999.90;999.90;;;0.00;99.90;;;;;;5033855;28;20446;-48
2021/01/04 17:28:58;;;;;;;1999.90;999.90;;;0.00;99.90;;;;;;5033170;28;21025;-48
2021/01/04 17:31:27;;;;;;;1999.90;999.90;;;0.00;99.90;;;;;;5034427;28;21008;-48
2021/01/04 17:33:54;;;;;;;1999.90;999.90;;;-0.10;99.90;;;;;;5042902;28;20429;-49
2021/01/04 17:36:21;;;;;;;1999.90;999.90;;;0.00;99.90;;;;;;5022830;28;20434;-48
2021/01/04 17:38:47;;;;;;;1999.90;999.90;;;0.00;99.90;;;;;;5035476;28;20436;-50
2021/01/04 17:41:15;;;;;;;1999.90;999.90;;;0.00;99.90;;;;;;5033153;28;20450;-48
2021/01/04 17:43:41;;;;;;;1999.90;999.90;;;0.00;99.90;;;;;;5030614;28;20445;-49
2021/01/04 17:46:08;;;;;;;1999.90;999.90;;;0.00;99.90;;;;;;5033842;28;20503;-48
2021/01/04 17:48:34;;;;;;;1999.90;999.90;;;-0.10;99.90;;;;;;5033795;28;20205;-49
2021/01/04 17:51:00;;;;;;;1999.90;999.90;;;0.00;99.90;;;;;;5032754;28;20459;-48
2021/01/04 17:53:27;;;;;;;1999.90;999.90;;;0.00;99.90;;;;;;5034855;28;20446;-48
2021/01/04 17:55:52;;;;;;;1999.90;999.90;;;0.00;99.90;;;;;;5035367;28;20860;-48
2021/01/04 17:58:18;;;;;;;1999.90;999.90;;;-0.10;99.90;;;;;;5033404;28;20444;-48
2021/01/04 18:00:44;;;;;;;1999.90;999.90;;;0.00;99.90;;;;;;5030142;28;20214;-48
2021/01/04 18:03:09;;;;;;;1999.90;999.90;;;0.00;99.90;;;;;;5033743;28;20278;-49
2021/01/04 18:05:35;;;;;;;1999.90;999.90;;;-0.10;99.90;;;;;;5041973;28;20245;-47
2021/01/04 18:08:01;;;;;;;1999.90;999.90;;;0.00;99.90;;;;;;5033960;28;20183;-48
2021/01/04 18:10:26;;;;;;;1999.90;999.90;;;-0.10;99.90;;;;;;5031723;28;20215;-48
2021/01/04 18:12:52;;;;;;;1999.90;999.90;;;0.10;99.90;;;;;;5038673;28;20294;-47
2021/01/04 18:15:18;;;;;;;1999.90;999.90;;;0.10;99.90;;;;;;5027280;28;20242;-48
2021/01/04 18:17:44;;;;;;;1999.90;999.90;;;0.10;99.90;;;;;;5025192;28;20274;-48
2021/01/04 18:20:11;;;;;;;1999.90;999.90;;;0.00;99.90;;;;;;5030412;28;20860;-48
2021/01/04 18:22:37;;;;;;;1999.90;999.90;;;-0.10;99.90;;;;;;5028991;28;20221;-48
2021/01/04 18:25:05;;;;;;;1999.90;999.90;;;0.00;99.90;;;;;;5029211;28;20863;-48
2021/01/04 18:27:31;;;;;;;1999.90;999.90;;;0.00;99.90;;;;;;5033172;28;20191;-47
2021/01/04 18:29:57;;;;;;;1999.90;999.90;;;0.00;99.90;;;;;;5029507;28;20445;-48
2021/01/04 18:32:22;;;;;;;1999.90;999.90;;;-0.10;99.90;;;;;;5030652;28;20623;-48
2021/01/04 18:34:51;;;;;;;1999.90;999.90;;;-0.10;99.90;;;;;;5029220;28;20958;-47
2021/01/04 18:37:18;;;;;;;1999.90;999.90;;;-0.10;99.90;;;;;;5031101;28;20539;-48
2021/01/04 18:39:43;;;;;;;1999.90;999.90;;;-0.20;99.90;;;;;;5035024;28;20420;-49
2021/01/04 18:42:09;;;;;;;1999.90;999.90;;;-0.20;99.90;;;;;;5033597;28;20480;-48
2021/01/04 18:44:35;;;;;;;1999.90;999.90;;;-0.10;99.90;;;;;;5034625;28;20500;-48
2021/01/04 18:47:02;;;;;;;1999.90;999.90;;;-0.10;99.90;;;;;;5033747;28;20266;-48
2021/01/04 18:49:28;;;;;;;1999.90;999.90;;;-0.10;99.90;;;;;;5030345;28;20233;-48
2021/01/04 18:51:54;;;;;;;1999.90;999.90;;;-0.20;99.90;;;;;;5029803;28;20855;-48
2021/01/04 18:54:22;;;;;;;1999.90;999.90;;;-0.10;99.90;;;;;;5030742;28;20218;-48
2021/01/04 18:56:49;;;;;;;1999.90;999.90;;;-0.10;99.90;;;;;;5029214;28;20213;-47
2021/01/04 18:59:19;;;;;;;1999.90;999.90;;;-0.20;99.90;;;;;;5037687;28;20480;-48
2021/01/04 19:01:59;;;;;;;1999.90;999.90;;;-0.10;99.90;;;;;;5033220;28;20465;-48
2021/01/04 19:04:26;;;;;;;1999.90;999.90;;;-0.10;99.90;;;;;;5031379;28;20469;-49
2021/01/04 19:06:57;;;;;;;1999.90;999.90;;;-0.20;99.90;;;;;;5028307;28;20446;-48
2021/01/04 19:09:24;;;;;;;1999.90;999.90;;;-0.20;99.90;;;;;;5029257;28;20461;-49
2021/01/04 19:11:52;;;;;;;1999.90;999.90;;;-0.20;99.90;;;;;;5034745;28;20473;-47
2021/01/04 19:14:21;;;;;;;1999.90;999.90;;;-0.10;99.90;;;;;;5035873;28;20476;-48
2021/01/04 19:16:54;;;;;;;1999.90;999.90;;;-0.10;99.90;;;;;;5036125;28;20566;-48
2021/01/04 19:19:21;;;;;;;1999.90;999.90;;;-0.10;99.90;;;;;;5032884;28;20976;-47
2021/01/04 19:21:47;;;;;;;1999.90;999.90;;;-0.10;99.90;;;;;;5031589;28;20514;-48
2021/01/04 19:24:14;;;;;;;1999.90;999.90;;;-0.20;99.90;;;;;;5035577;28;20472;-48
2021/01/04 19:26:40;;;;;;;1999.90;999.90;;;-0.20;99.90;;;;;;5035188;28;20296;-50
2021/01/04 19:29:07;;;;;;;1999.90;999.90;;;-0.10;99.90;;;;;;5036781;28;21234;-49
2021/01/04 19:31:40;;;;;;;1999.90;999.90;;;-0.10;99.90;;;;;;5039007;28;20187;-50
2021/01/04 19:34:07;;;;;;;1999.90;999.90;;;-0.10;99.90;;;;;;5037816;28;20453;-48
2021/01/04 19:36:32;;;;;;;1999.90;999.90;;;-0.10;99.90;;;;;;5038399;28;20457;-48
2021/01/04 19:38:58;;;;;;;1999.90;999.90;;;0.00;99.90;;;;;;5037076;28;20504;-50
2021/01/04 19:41:27;;;;;;;1999.90;999.90;;;-0.20;99.90;;;;;;5031228;28;20494;-49
2021/01/04 19:43:55;;;;;;;1999.90;999.90;;;-0.20;99.90;;;;;;5035346;28;20207;-50
2021/01/04 19:46:22;;;;;;;1999.90;999.90;;;-0.20;99.90;;;;;;5040604;28;20851;-50
2021/01/04 19:48:54;;;;;;;1999.90;999.90;;;-0.20;99.90;;;;;;5040049;28;20786;-50
2021/01/04 19:51:20;;;;;;;1999.90;999.90;;;-0.10;99.90;;;;;;5028834;28;20452;-49
2021/01/04 19:53:49;;;;;;;1999.90;999.90;;;-0.20;99.90;;;;;;5030928;28;20500;-49
2021/01/04 19:56:19;;;;;;;1999.90;999.90;;;-0.20;99.90;;;;;;5032004;28;20192;-48
2021/01/04 19:58:45;;;;;;;1999.90;999.90;;;-0.20;99.90;;;;;;5035143;28;20448;-49
2021/01/04 20:01:11;;;;;;;1999.90;999.90;;;-0.20;99.90;;;;;;5044053;28;20520;-49
2021/01/04 20:03:39;;;;;;;1999.90;999.90;;;-0.10;99.90;;;;;;5039386;28;21021;-49
2021/01/04 20:06:05;;;;;;;1999.90;999.90;;;-0.20;99.90;;;;;;5036991;28;20183;-49
2021/01/04 20:08:30;;;;;;;1999.90;999.90;;;-0.20;99.90;;;;;;5038024;28;20437;-48
2021/01/04 20:10:56;;;;;;;1999.90;999.90;;;-0.10;99.90;;;;;;5040121;28;20437;-49
2021/01/04 20:13:22;;;;;;;1999.90;999.90;;;-0.20;99.90;;;;;;5032498;28;20190;-52
2021/01/04 20:15:51;;;;;;;1999.90;999.90;;;-0.20;99.90;;;;;;5030931;28;20211;-46
2021/01/04 20:18:20;;;;;;;1999.90;999.90;;;-0.20;99.90;;;;;;5035376;28;20201;-47
2021/01/04 20:20:48;;;;;;;1999.90;999.90;;;-0.20;99.90;;;;;;5043331;28;20409;-48
2021/01/04 20:23:14;;;;;;;1999.90;999.90;;;-0.30;99.90;;;;;;5033476;28;20553;-49
2021/01/04 20:25:40;;;;;;;1999.90;999.90;;;-0.30;99.90;;;;;;5034891;28;21007;-49
2021/01/04 20:28:06;;;;;;;1999.90;999.90;;;-0.20;99.90;;;;;;5031764;28;20441;-48
2021/01/04 20:30:33;;;;;;;1999.90;999.90;;;-0.10;99.90;;;;;;5031543;28;20805;-47
2021/01/04 20:32:58;;;;;;;1999.90;999.90;;;-0.10;99.90;;;;;;5031731;28;20447;-49
2021/01/04 20:35:24;;;;;;;1999.90;999.90;;;-0.10;99.90;;;;;;5034628;28;20461;-47
2021/01/04 20:37:50;;;;;;;1999.90;999.90;;;-0.10;99.90;;;;;;5045635;28;20186;-47
2021/01/04 20:40:18;;;;;;;1999.90;999.90;;;-0.10;99.90;;;;;;5033413;28;20618;-48
2021/01/04 20:42:43;;;;;;;1999.90;999.90;;;-0.10;99.90;;;;;;5035023;28;20203;-48
2021/01/04 20:45:09;;;;;;;1999.90;999.90;;;-0.20;99.90;;;;;;5037236;28;20459;-48
2021/01/04 20:47:39;;;;;;;1999.90;999.90;;;-0.20;99.90;;;;;;5034425;28;20190;-47
2021/01/04 20:50:07;;;;;;;1999.90;999.90;;;-0.10;99.90;;;;;;5037807;28;20463;-47
2021/01/04 20:52:33;;;;;;;1999.90;999.90;;;-0.10;99.90;;;;;;5026363;28;20941;-48
2021/01/04 20:54:58;;;;;;;1999.90;999.90;;;-0.10;99.90;;;;;;5030168;28;20468;-50
2021/01/04 20:57:24;;;;;;;1999.90;999.90;;;-0.10;99.90;;;;;;5032098;28;20442;-48
2021/01/04 20:59:49;;;;;;;1999.90;999.90;;;-0.10;99.90;;;;;;5037773;28;20899;-47
2021/01/04 21:02:15;;;;;;;1999.90;999.90;;;-0.10;99.90;;;;;;5032557;28;20218;-48
2021/01/04 21:04:41;;;;;;;1999.90;999.90;;;-0.10;99.90;;;;;;5030969;28;20202;-49
2021/01/04 21:07:06;;;;;;;1999.90;999.90;;;-0.20;99.90;;;;;;5034948;28;20183;-48
2021/01/04 21:09:32;;;;;;;1999.90;999.90;;;-0.10;99.90;;;;;;5032998;28;20776;-50
2021/01/04 21:11:59;;;;;;;1999.90;999.90;;;0.00;99.90;;;;;;5032820;28;20197;-48
2021/01/04 21:14:26;;;;;;;1999.90;999.90;;;-0.10;99.90;;;;;;5048958;28;20225;-48
2021/01/04 21:16:53;;;;;;;1999.90;999.90;;;-0.20;99.90;;;;;;5042945;28;20425;-48
2021/01/04 21:19:20;;;;;;;1999.90;999.90;;;-0.10;99.90;;;;;;5038802;28;20469;-48
2021/01/04 21:21:46;;;;;;;1999.90;999.90;;;-0.20;99.90;;;;;;5033545;28;21063;-47
2021/01/04 21:24:13;;;;;;;1999.90;999.90;;;-0.20;99.90;;;;;;5035650;28;20465;-47
2021/01/04 21:26:39;;;;;;;1999.90;999.90;;;-0.20;99.90;;;;;;5035703;28;20421;-49
2021/01/04 21:29:07;;;;;;;1999.90;999.90;;;-0.20;99.90;;;;;;5027979;28;20434;-49
2021/01/04 21:31:37;;;;;;;1999.90;999.90;;;-0.20;99.90;;;;;;5033922;28;20241;-48
2021/01/04 21:34:04;;;;;;;1999.90;999.90;;;-0.10;99.90;;;;;;5025792;28;20457;-49
2021/01/04 21:36:34;;;;;;;1999.90;999.90;;;-0.10;99.90;;;;;;5032008;28;20782;-48
2021/01/04 21:39:02;;;;;;;1999.90;999.90;;;-0.20;99.90;;;;;;5034128;28;20627;-47
2021/01/04 21:41:33;;;;;;;1999.90;999.90;;;-0.20;99.90;;;;;;5033045;28;20965;-48
2021/01/04 21:43:59;;;;;;;1999.90;999.90;;;-0.20;99.90;;;;;;5030450;28;20539;-49
2021/01/04 21:46:27;;;;;;;1999.90;999.90;;;-0.20;99.90;;;;;;5037172;28;20449;-48
2021/01/04 21:48:53;;;;;;;1999.90;999.90;;;-0.10;99.90;;;;;;5038532;28;20420;-51
2021/01/04 21:51:33;;;;;;;1999.90;999.90;;;-0.20;99.90;;;;;;5028540;28;20445;-49
2021/01/04 21:54:00;;;;;;;1999.90;999.90;;;-0.20;99.90;;;;;;5030101;28;20486;-50
2021/01/04 21:56:26;;;;;;;1999.90;999.90;;;-0.20;99.90;;;;;;5033302;28;20470;-47
2021/01/04 21:58:51;;;;;;;1999.90;999.90;;;-0.20;99.90;;;;;;5029508;28;20480;-50
2021/01/04 22:01:17;;;;;;;1999.90;999.90;;;-0.20;99.90;;;;;;5035190;28;20187;-48
2021/01/04 22:03:43;;;;;;;1999.90;999.90;;;-0.20;99.90;;;;;;5035859;28;20216;-48
2021/01/04 22:06:10;;;;;;;1999.90;999.90;;;-0.20;99.90;;;;;;5038463;28;20461;-48
2021/01/04 22:08:36;;;;;;;1999.90;999.90;;;-0.20;99.90;;;;;;5036526;28;20186;-47
2021/01/04 22:11:06;;;;;;;1999.90;999.90;;;-0.10;99.90;;;;;;5031800;28;20478;-48
2021/01/04 22:13:32;;;;;;;1999.90;999.90;;;-0.10;99.90;;;;;;5034802;28;20452;-48
2021/01/04 22:15:59;;;;;;;1999.90;999.90;;;-0.20;99.90;;;;;;5033028;28;20553;-49
2021/01/04 22:18:25;;;;;;;1999.90;999.90;;;-0.20;99.90;;;;;;5032304;28;20549;-49
2021/01/04 22:20:51;;;;;;;1999.90;999.90;;;-0.20;99.90;;;;;;5038627;28;20535;-48
2021/01/04 22:23:17;;;;;;;1999.90;999.90;;;-0.30;99.90;;;;;;5032209;28;20480;-48
2021/01/04 22:25:43;;;;;;;1999.90;999.90;;;-0.30;99.90;;;;;;5037427;28;20232;-48
2021/01/04 22:28:08;;;;;;;1999.90;999.90;;;-0.20;99.90;;;;;;5036566;28;20210;-48
2021/01/04 22:30:34;;;;;;;1999.90;999.90;;;-0.20;99.90;;;;;;5035904;28;20450;-49
2021/01/04 22:32:59;;;;;;;1999.90;999.90;;;-0.20;99.90;;;;;;5030466;28;20202;-47
2021/01/04 22:35:25;;;;;;;1999.90;999.90;;;-0.20;99.90;;;;;;5033062;28;20904;-48
2021/01/04 22:37:51;;;;;;;1999.90;999.90;;;-0.10;99.90;;;;;;5033933;28;20294;-47
2021/01/04 22:40:17;;;;;;;1999.90;999.90;;;-0.10;99.90;;;;;;5029843;28;20210;-48
2021/01/04 22:42:43;;;;;;;1999.90;999.90;;;-0.10;99.90;;;;;;5035608;28;20465;-48
2021/01/04 22:45:10;;;;;;;1999.90;999.90;;;-0.10;99.90;;;;;;5043976;28;20483;-48
2021/01/04 22:47:36;;;;;;;1999.90;999.90;;;-0.10;99.90;;;;;;5043099;28;20575;-47
2021/01/04 22:50:05;;;;;;;1999.90;999.90;;;-0.10;99.90;;;;;;5040077;28;20782;-48
2021/01/04 22:52:30;;;;;;;1999.90;999.90;;;-0.10;99.90;;;;;;5038685;28;20442;-49
2021/01/04 22:54:56;;;;;;;1999.90;999.90;;;-0.10;99.90;;;;;;5038431;28;20464;-49
2021/01/04 22:57:22;;;;;;;1999.90;999.90;;;-0.10;99.90;;;;;;5047295;28;20205;-48
2021/01/04 22:59:47;;;;;;;1999.90;999.90;;;-0.10;99.90;;;;;;5038436;28;20262;-47
2021/01/04 23:02:13;;;;;;;1999.90;999.90;;;-0.10;99.90;;;;;;5034012;28;21084;-48
2021/01/04 23:04:38;;;;;;;1999.90;999.90;;;-0.10;99.90;;;;;;5032200;28;20218;-48
2021/01/04 23:07:04;;;;;;;1999.90;999.90;;;-0.10;99.90;;;;;;5036288;28;20892;-48
2021/01/04 23:09:30;;;;;;;1999.90;999.90;;;-0.10;99.90;;;;;;5036659;28;20186;-47
2021/01/04 23:11:57;;;;;;;1999.90;999.90;;;-0.10;99.90;;;;;;5033339;28;20448;-47
2021/01/04 23:14:24;;;;;;;1999.90;999.90;;;-0.10;99.90;;;;;;5038771;28;20290;-49
2021/01/04 23:16:51;;;;;;;1999.90;999.90;;;-0.20;99.90;;;;;;5036684;28;20444;-48
2021/01/04 23:19:20;;;;;;;1999.90;999.90;;;-0.20;99.90;;;;;;5035796;28;20456;-51
2021/01/04 23:21:47;;;;;;;1999.90;999.90;;;-0.20;99.90;;;;;;5034256;28;20475;-48
2021/01/04 23:24:12;;;;;;;1999.90;999.90;;;-0.20;99.90;;;;;;5039270;28;20514;-48
2021/01/04 23:26:38;;;;;;;1999.90;999.90;;;-0.20;99.90;;;;;;5041398;28;20433;-48
